Time;durP1;ratioP1;P1;durP2;ratioP2;P2;SDS_P1;SDS_P2;PMS_P1;PMS_P2;Temp;Humidity;BMP_temperature;BMP_pressure;BME280_temperature;BME280_humidity;BME280_pressure;Samples;Min_cycle;Max_cycle;Signal;HPM_P1;HPM_P2
2021/05/02 00:02:04;;;;;;;35.38;26.98;;;7.90;99.90;;;;;;5051984;28;20039;-82
2021/05/02 00:04:29;;;;;;;33.45;25.35;;;8.00;99.90;;;;;;5053158;28;20037;-82
2021/05/02 00:06:55;;;;;;;36.33;25.45;;;8.00;99.90;;;;;;5051912;28;20492;-82
2021/05/02 00:09:21;;;;;;;37.17;27.23;;;8.10;99.90;;;;;;5051804;28;20075;-82
2021/05/02 00:11:46;;;;;;;34.53;26.13;;;8.10;99.90;;;;;;5051827;28;20029;-82
2021/05/02 00:14:13;;;;;;;33.42;25.75;;;8.10;99.90;;;;;;5056321;28;20163;-82
2021/05/02 00:16:39;;;;;;;32.35;24.08;;;8.00;99.90;;;;;;5057244;28;20029;-82
2021/05/02 00:19:09;;;;;;;36.97;27.13;;;8.10;99.90;;;;;;5057194;28;20384;-82
2021/05/02 00:21:35;;;;;;;35.83;26.33;;;8.10;99.90;;;;;;5055884;28;20029;-82
2021/05/02 00:24:02;;;;;;;34.58;25.55;;;8.00;99.90;;;;;;5057141;28;20056;-82
2021/05/02 00:26:28;;;;;;;30.67;24.20;;;8.00;99.90;;;;;;5057360;28;20025;-82
2021/05/02 00:28:56;;;;;;;30.85;23.20;;;8.10;99.90;;;;;;5055779;28;20024;-82
2021/05/02 00:31:22;;;;;;;32.65;24.77;;;8.10;99.90;;;;;;5055516;28;20390;-82
2021/05/02 00:33:48;;;;;;;32.60;25.02;;;8.10;99.90;;;;;;5055583;28;20033;-81
2021/05/02 00:36:15;;;;;;;33.20;25.65;;;8.10;99.90;;;;;;5056927;28;20013;-81
2021/05/02 00:38:42;;;;;;;31.92;23.75;;;8.00;99.90;;;;;;5056838;28;20381;-82
2021/05/02 00:41:26;;;;;;;34.83;25.42;;;8.00;99.90;;;;;;5056828;28;20028;-81
2021/05/02 00:44:01;;;;;;;30.48;24.02;;;8.10;99.90;;;;;;5055582;28;20021;-81
2021/05/02 00:46:37;;;;;;;33.35;23.70;;;8.00;99.90;;;;;;5055472;28;20060;-81
2021/05/02 00:49:13;;;;;;;29.52;23.35;;;7.90;99.90;;;;;;5056726;28;20572;-81
2021/05/02 00:51:42;;;;;;;33.47;22.83;;;7.80;99.90;;;;;;5056703;28;20025;-81
2021/05/02 00:54:14;;;;;;;30.40;22.33;;;7.80;99.90;;;;;;5055219;28;20400;-81
2021/05/02 00:56:55;;;;;;;32.88;22.65;;;7.90;99.90;;;;;;5056864;28;20029;-81
2021/05/02 00:59:53;;;;;;;33.10;23.42;;;8.00;99.90;;;;;;5055282;28;20443;-81
2021/05/02 01:02:21;;;;;;;27.02;21.20;;;8.00;99.90;;;;;;5055200;28;20405;-82
2021/05/02 01:04:47;;;;;;;33.05;21.58;;;8.00;99.90;;;;;;5056448;28;20025;-81
2021/05/02 01:07:22;;;;;;;30.38;22.45;;;8.10;99.90;;;;;;5055116;28;20052;-81
2021/05/02 01:09:48;;;;;;;31.92;23.10;;;7.90;99.90;;;;;;5056348;28;20388;-81
2021/05/02 01:12:19;;;;;;;28.52;21.77;;;7.70;99.90;;;;;;5056249;28;20044;-81
2021/05/02 01:14:52;;;;;;;27.27;20.98;;;7.60;99.90;;;;;;5056491;28;20388;-81
2021/05/02 01:17:19;;;;;;;28.27;20.65;;;7.80;99.90;;;;;;5054904;28;20031;-81
2021/05/02 01:19:48;;;;;;;26.10;20.25;;;7.80;99.90;;;;;;5054865;28;20025;-81
2021/05/02 01:22:18;;;;;;;26.70;19.35;;;7.80;99.90;;;;;;5056084;28;20491;-81
2021/05/02 01:24:46;;;;;;;25.85;18.65;;;7.70;99.90;;;;;;5054758;28;20039;-81
2021/05/02 01:27:22;;;;;;;24.45;18.83;;;7.80;99.90;;;;;;5054716;28;20480;-81
2021/05/02 01:29:48;;;;;;;25.17;19.20;;;7.70;99.90;;;;;;5055967;28;20090;-82
2021/05/02 01:32:14;;;;;;;25.33;18.45;;;7.70;99.90;;;;;;5054443;28;20053;-82
2021/05/02 01:34:40;;;;;;;24.23;18.45;;;7.80;99.90;;;;;;5054490;28;20037;-82
2021/05/02 01:37:06;;;;;;;21.38;16.60;;;7.90;99.90;;;;;;5056325;28;20028;-82
2021/05/02 01:39:32;;;;;;;21.02;16.90;;;7.90;99.90;;;;;;5055663;28;20017;-82
2021/05/02 01:41:57;;;;;;;23.90;18.15;;;7.80;99.90;;;;;;5054386;28;20064;-82
2021/05/02 01:44:23;;;;;;;24.83;17.45;;;7.70;99.90;;;;;;5055679;28;20107;-81
2021/05/02 01:46:52;;;;;;;22.15;17.13;;;7.80;99.90;;;;;;5054273;28;20030;-81
2021/05/02 01:49:22;;;;;;;22.98;18.42;;;7.80;99.90;;;;;;5055546;28;20025;-81
2021/05/02 01:51:49;;;;;;;22.65;17.30;;;7.80;99.90;;;;;;5054230;28;20026;-82
2021/05/02 01:54:15;;;;;;;21.75;17.08;;;7.80;99.90;;;;;;5055374;28;20104;-82
2021/05/02 01:56:42;;;;;;;26.02;18.45;;;7.60;99.90;;;;;;5054137;28;20017;-82
2021/05/02 01:59:09;;;;;;;21.77;17.63;;;7.70;99.90;;;;;;5054109;28;20480;-82
2021/05/02 02:01:36;;;;;;;20.10;16.67;;;7.70;99.90;;;;;;5054078;28;20439;-82
2021/05/02 02:04:04;;;;;;;21.30;16.92;;;7.80;99.90;;;;;;5055585;28;20032;-82
2021/05/02 02:06:30;;;;;;;21.17;15.82;;;7.90;99.90;;;;;;5054007;28;20036;-82
2021/05/02 02:08:58;;;;;;;19.02;15.82;;;7.90;99.90;;;;;;5053957;28;20135;-81
2021/05/02 02:11:28;;;;;;;21.88;16.05;;;7.90;99.90;;;;;;5053890;28;20036;-82
2021/05/02 02:13:55;;;;;;;22.45;16.63;;;7.70;99.90;;;;;;5053844;28;20024;-81
2021/05/02 02:16:23;;;;;;;19.95;15.40;;;7.90;99.90;;;;;;5055108;28;20108;-82
2021/05/02 02:18:49;;;;;;;20.40;16.30;;;7.80;99.90;;;;;;5053773;28;20040;-81
2021/05/02 02:21:20;;;;;;;21.33;15.73;;;7.70;99.90;;;;;;5055236;28;20021;-82
2021/05/02 02:23:56;;;;;;;18.45;15.20;;;7.80;99.90;;;;;;5053730;28;20029;-81
2021/05/02 02:26:40;;;;;;;19.67;16.35;;;7.70;99.90;;;;;;5055233;28;20103;-81
2021/05/02 02:29:08;;;;;;;20.05;16.10;;;7.70;99.90;;;;;;5054893;28;20032;-82
2021/05/02 02:31:35;;;;;;;20.77;14.77;;;7.80;99.90;;;;;;5047074;28;20516;-81
2021/05/02 02:34:04;;;;;;;21.95;15.80;;;7.90;99.90;;;;;;5016939;28;20041;-81
2021/05/02 02:36:31;;;;;;;18.88;16.88;;;7.90;99.90;;;;;;5016470;28;20393;-81
2021/05/02 02:38:58;;;;;;;23.33;15.88;;;7.90;99.90;;;;;;5034751;28;20045;-82
2021/05/02 02:41:25;;;;;;;21.35;15.02;;;7.80;99.90;;;;;;5034656;28;20097;-82
2021/05/02 02:43:56;;;;;;;22.75;15.43;;;7.90;99.90;;;;;;5034582;28;20029;-81
2021/05/02 02:46:23;;;;;;;17.50;15.32;;;7.90;99.90;;;;;;5016803;28;20021;-82
2021/05/02 02:48:59;;;;;;;20.15;15.35;;;7.90;99.90;;;;;;5016754;28;20544;-81
2021/05/02 02:51:26;;;;;;;20.95;16.65;;;7.90;99.90;;;;;;5034407;28;20029;-81
2021/05/02 02:53:55;;;;;;;20.95;16.20;;;7.90;99.90;;;;;;5016609;28;20470;-81
2021/05/02 02:56:22;;;;;;;21.67;16.30;;;7.80;99.90;;;;;;5000443;28;20036;-81
2021/05/02 02:59:15;;;;;;;20.90;16.45;;;7.90;99.90;;;;;;5034599;28;20079;-81
2021/05/02 03:01:42;;;;;;;24.38;17.02;;;7.90;99.90;;;;;;5016551;28;20036;-81
2021/05/02 03:04:10;;;;;;;19.83;16.90;;;7.70;99.90;;;;;;5016472;28;20076;-81
2021/05/02 03:06:36;;;;;;;19.20;15.98;;;7.60;99.90;;;;;;5034154;28;20490;-81
2021/05/02 03:09:03;;;;;;;20.05;17.13;;;7.40;99.90;;;;;;5034379;28;20036;-81
2021/05/02 03:11:28;;;;;;;22.17;15.30;;;7.60;99.90;;;;;;5016336;28;20030;-81
2021/05/02 03:13:55;;;;;;;20.88;16.98;;;7.70;99.90;;;;;;5034233;28;20032;-82
2021/05/02 03:16:27;;;;;;;21.20;17.20;;;7.60;99.90;;;;;;5016200;28;20079;-82
2021/05/02 03:19:07;;;;;;;21.77;16.70;;;7.50;99.90;;;;;;5016144;28;20021;-81
2021/05/02 03:21:51;;;;;;;21.80;17.85;;;7.40;99.90;;;;;;5017047;28;20368;-81
2021/05/02 03:24:24;;;;;;;16.52;14.75;;;7.30;99.90;;;;;;5016191;28;20488;-81
2021/05/02 03:26:55;;;;;;;24.13;16.60;;;7.40;99.90;;;;;;5033861;28;20033;-81
2021/05/02 03:29:23;;;;;;;19.10;16.13;;;7.60;99.90;;;;;;5016029;28;20033;-81
2021/05/02 03:31:54;;;;;;;20.00;16.75;;;7.50;99.90;;;;;;5031754;28;20059;-82
2021/05/02 03:34:22;;;;;;;21.50;16.65;;;7.50;99.90;;;;;;5052334;28;20036;-82
2021/05/02 03:36:54;;;;;;;18.02;14.95;;;7.70;99.90;;;;;;5052305;28;20021;-81
2021/05/02 03:39:20;;;;;;;23.35;16.70;;;7.70;99.90;;;;;;5053590;28;20025;-82
2021/05/02 03:41:46;;;;;;;20.02;17.67;;;7.70;99.90;;;;;;5053474;28;20491;-82
2021/05/02 03:44:11;;;;;;;24.58;16.88;;;7.70;99.90;;;;;;5053391;28;20032;-81
2021/05/02 03:46:37;;;;;;;22.45;17.42;;;7.50;99.90;;;;;;5053287;28;20029;-82
2021/05/02 03:49:07;;;;;;;24.55;17.02;;;7.60;99.90;;;;;;5052773;28;20036;-82
2021/05/02 03:51:36;;;;;;;22.02;16.80;;;7.30;99.90;;;;;;5053359;28;20074;-82
2021/05/02 03:54:03;;;;;;;17.75;14.43;;;7.30;99.90;;;;;;5053549;28;20063;-82
2021/05/02 03:56:38;;;;;;;24.38;16.33;;;7.50;99.90;;;;;;5053316;28;20047;-82
2021/05/02 03:59:11;;;;;;;22.13;17.63;;;7.50;99.90;;;;;;5053635;28;20021;-82
2021/05/02 04:01:41;;;;;;;21.48;16.90;;;7.40;99.90;;;;;;5051971;28;20116;-82
2021/05/02 04:04:10;;;;;;;18.38;15.25;;;7.40;99.90;;;;;;5051955;28;20036;-82
2021/05/02 04:06:35;;;;;;;20.50;16.75;;;7.50;99.90;;;;;;5051934;28;20048;-82
2021/05/02 04:09:06;;;;;;;22.23;16.95;;;7.60;99.90;;;;;;5053181;28;20053;-82
2021/05/02 04:11:32;;;;;;;22.55;16.45;;;7.50;99.90;;;;;;5053178;28;20028;-82
2021/05/02 04:14:02;;;;;;;19.65;15.57;;;7.50;99.90;;;;;;5053094;28;20504;-82
2021/05/02 04:16:27;;;;;;;20.77;16.23;;;7.60;99.90;;;;;;5051847;28;20028;-82
2021/05/02 04:18:53;;;;;;;22.40;16.83;;;7.60;99.90;;;;;;5053067;28;20029;-82
2021/05/02 04:21:19;;;;;;;22.85;15.40;;;7.70;99.90;;;;;;5051777;28;20071;-82
2021/05/02 04:23:44;;;;;;;22.02;16.05;;;7.70;99.90;;;;;;5051830;28;20024;-82
2021/05/02 04:26:10;;;;;;;18.13;14.40;;;7.70;99.90;;;;;;5051752;28;20056;-82
2021/05/02 04:28:36;;;;;;;19.33;14.68;;;7.70;99.90;;;;;;5051668;28;20025;-82
2021/05/02 04:31:02;;;;;;;17.98;16.00;;;7.70;99.90;;;;;;5049754;28;20059;-82
2021/05/02 04:33:27;;;;;;;18.02;14.40;;;7.80;99.90;;;;;;5032952;28;20527;-82
2021/05/02 04:35:53;;;;;;;22.30;16.88;;;7.80;99.90;;;;;;5015300;28;20025;-82
2021/05/02 04:38:19;;;;;;;19.70;15.40;;;7.70;99.90;;;;;;5015433;28;20057;-81
2021/05/02 04:40:44;;;;;;;18.80;14.57;;;7.70;99.90;;;;;;5015281;28;20021;-82
2021/05/02 04:43:10;;;;;;;17.20;14.82;;;7.90;99.90;;;;;;5032926;28;20041;-82
2021/05/02 04:45:37;;;;;;;19.15;15.45;;;7.80;99.90;;;;;;5015145;28;20053;-82
2021/05/02 04:48:04;;;;;;;18.73;15.32;;;7.80;99.90;;;;;;5015200;28;20112;-82
2021/05/02 04:50:30;;;;;;;20.88;16.48;;;7.70;99.90;;;;;;5033159;28;20025;-82
2021/05/02 04:52:57;;;;;;;22.73;16.55;;;7.70;99.90;;;;;;5032793;28;20022;-82
2021/05/02 04:55:23;;;;;;;19.40;15.90;;;7.80;99.90;;;;;;5032870;28;20017;-82
2021/05/02 04:57:48;;;;;;;19.35;15.38;;;7.80;99.90;;;;;;5032854;28;20049;-82
2021/05/02 05:00:15;;;;;;;19.85;15.82;;;7.70;99.90;;;;;;5036041;28;20022;-82
2021/05/02 05:02:41;;;;;;;21.75;16.90;;;7.80;99.90;;;;;;5036453;28;20093;-82
2021/05/02 05:05:07;;;;;;;16.77;14.57;;;7.80;99.90;;;;;;5036475;28;20496;-82
2021/05/02 05:07:33;;;;;;;18.60;16.15;;;7.70;99.90;;;;;;5018645;28;20057;-82
2021/05/02 05:09:58;;;;;;;18.13;15.48;;;7.80;99.90;;;;;;5036896;28;20445;-82
2021/05/02 05:12:24;;;;;;;19.35;15.05;;;7.80;99.90;;;;;;5036307;28;20386;-82
2021/05/02 05:14:50;;;;;;;16.63;14.75;;;7.90;99.90;;;;;;5018417;28;20423;-82
2021/05/02 05:17:15;;;;;;;24.42;17.05;;;7.90;99.90;;;;;;5018529;28;20037;-82
2021/05/02 05:19:41;;;;;;;18.33;15.48;;;7.90;99.90;;;;;;5036227;28;20021;-82
2021/05/02 05:22:07;;;;;;;20.35;17.00;;;7.90;99.90;;;;;;5018485;28;20048;-81
2021/05/02 05:24:33;;;;;;;20.40;16.95;;;7.90;99.90;;;;;;5036137;28;20036;-82
2021/05/02 05:26:58;;;;;;;19.92;16.38;;;7.90;99.90;;;;;;5036010;28;20021;-83
2021/05/02 05:29:24;;;;;;;21.83;16.60;;;7.90;99.90;;;;;;5018280;28;20029;-82
2021/05/02 05:31:50;;;;;;;16.98;14.63;;;7.80;99.90;;;;;;5035912;28;20056;-82
2021/05/02 05:34:16;;;;;;;19.70;15.95;;;7.80;99.90;;;;;;5036162;28;20033;-82
2021/05/02 05:36:41;;;;;;;17.60;15.35;;;7.90;99.90;;;;;;5036134;28;20025;-81
2021/05/02 05:39:07;;;;;;;18.60;15.35;;;7.80;99.90;;;;;;5036004;28;20067;-82
2021/05/02 05:41:33;;;;;;;17.90;16.00;;;7.80;99.90;;;;;;5018066;28;20076;-82
2021/05/02 05:43:59;;;;;;;20.98;15.52;;;7.90;99.90;;;;;;5018003;28;20443;-82
2021/05/02 05:46:25;;;;;;;18.92;14.98;;;7.90;99.90;;;;;;5018001;28;20025;-82
2021/05/02 05:48:50;;;;;;;18.75;15.88;;;7.90;99.90;;;;;;5035693;28;20104;-81
2021/05/02 05:51:18;;;;;;;20.02;16.23;;;7.90;99.90;;;;;;5017823;28;20029;-82
2021/05/02 05:53:44;;;;;;;18.25;15.23;;;7.90;99.90;;;;;;5035472;28;20024;-82
2021/05/02 05:56:09;;;;;;;21.50;16.20;;;7.80;99.90;;;;;;5035564;28;20025;-82
2021/05/02 05:58:35;;;;;;;20.23;15.32;;;7.90;99.90;;;;;;5035772;28;20079;-82
2021/05/02 06:01:01;;;;;;;18.40;14.88;;;7.90;99.90;;;;;;5017713;28;20018;-82
2021/05/02 06:03:26;;;;;;;20.60;15.70;;;7.90;99.90;;;;;;5017647;28;20040;-82
2021/05/02 06:05:52;;;;;;;16.95;14.48;;;7.90;99.90;;;;;;5035934;28;20026;-82
2021/05/02 06:08:17;;;;;;;18.50;15.25;;;7.80;99.90;;;;;;5017562;28;20079;-82
2021/05/02 06:10:43;;;;;;;18.23;15.15;;;7.90;99.90;;;;;;5016546;28;20025;-82
2021/05/02 06:13:09;;;;;;;17.40;14.57;;;7.90;99.90;;;;;;5035368;28;20083;-82
2021/05/02 06:15:35;;;;;;;20.42;17.17;;;7.90;99.90;;;;;;5035435;28;20049;-82
2021/05/02 06:18:00;;;;;;;17.38;14.27;;;7.90;99.90;;;;;;5034559;28;20481;-82
2021/05/02 06:20:26;;;;;;;18.05;14.93;;;8.00;99.90;;;;;;5017334;28;20025;-82
2021/05/02 06:22:53;;;;;;;18.83;15.38;;;8.10;99.90;;;;;;5017262;28;20025;-82
2021/05/02 06:25:19;;;;;;;24.83;17.77;;;8.20;99.90;;;;;;5017201;28;20148;-82
2021/05/02 06:27:45;;;;;;;17.60;14.05;;;8.30;99.90;;;;;;5017187;28;20449;-82
2021/05/02 06:30:11;;;;;;;17.98;14.15;;;8.40;99.90;;;;;;5034906;28;20139;-81
2021/05/02 06:32:38;;;;;;;20.15;13.70;;;8.50;99.90;;;;;;5045854;28;20080;-81
2021/05/02 06:35:05;;;;;;;17.92;13.75;;;8.40;99.90;;;;;;5053372;28;20032;-81
2021/05/02 06:37:32;;;;;;;17.35;14.68;;;8.30;99.90;;;;;;5053394;28;20045;-81
2021/05/02 06:39:57;;;;;;;17.95;13.25;;;8.30;99.90;;;;;;5053244;28;20431;-81
2021/05/02 06:42:24;;;;;;;17.92;14.82;;;8.30;99.90;;;;;;5054603;28;20017;-81
2021/05/02 06:44:53;;;;;;;20.63;15.07;;;8.20;99.90;;;;;;5053289;28;20032;-81
2021/05/02 06:47:19;;;;;;;17.25;14.27;;;8.00;99.90;;;;;;5053260;28;20575;-81
2021/05/02 06:49:45;;;;;;;20.23;14.52;;;8.10;99.90;;;;;;5054470;28;20132;-81
2021/05/02 06:52:11;;;;;;;19.73;14.18;;;8.20;99.90;;;;;;5054672;28;20056;-81
2021/05/02 06:54:36;;;;;;;18.02;14.65;;;8.40;99.90;;;;;;5053013;28;20021;-81
2021/05/02 06:57:02;;;;;;;19.00;14.63;;;8.40;99.90;;;;;;5053019;28;20028;-81
2021/05/02 06:59:28;;;;;;;20.50;14.93;;;8.50;99.90;;;;;;5052962;28;20102;-81
2021/05/02 07:01:54;;;;;;;18.08;15.10;;;8.60;99.90;;;;;;5054137;28;20021;-81
2021/05/02 07:04:19;;;;;;;24.65;14.75;;;8.80;99.90;;;;;;5052899;28;20040;-80
2021/05/02 07:06:45;;;;;;;17.60;13.73;;;8.80;99.90;;;;;;5054054;28;20032;-81
2021/05/02 07:09:11;;;;;;;18.83;14.98;;;8.90;99.90;;;;;;5052737;28;20056;-80
2021/05/02 07:11:37;;;;;;;25.02;17.92;;;8.80;99.90;;;;;;5054117;28;20043;-81
2021/05/02 07:14:03;;;;;;;16.95;14.48;;;8.80;99.90;;;;;;5052573;28;20054;-80
2021/05/02 07:16:29;;;;;;;19.33;15.90;;;8.70;99.90;;;;;;5052650;28;20025;-80
2021/05/02 07:18:55;;;;;;;19.83;16.75;;;8.80;99.90;;;;;;5052592;28;20021;-81
2021/05/02 07:21:21;;;;;;;18.13;14.02;;;8.90;99.90;;;;;;5053639;28;20036;-81
2021/05/02 07:23:49;;;;;;;16.40;14.23;;;9.00;99.90;;;;;;5053787;28;20025;-81
2021/05/02 07:26:16;;;;;;;18.25;13.75;;;9.20;99.90;;;;;;5053723;28;20056;-82
2021/05/02 07:28:41;;;;;;;19.38;14.10;;;9.30;99.90;;;;;;5053990;28;20029;-82
2021/05/02 07:31:07;;;;;;;18.73;14.10;;;9.30;99.90;;;;;;5052234;28;20580;-82
2021/05/02 07:33:33;;;;;;;20.13;14.82;;;9.50;99.90;;;;;;5052258;28;20515;-82
2021/05/02 07:35:59;;;;;;;17.98;13.63;;;9.40;99.90;;;;;;5052292;28;20040;-82
2021/05/02 07:38:25;;;;;;;17.92;13.00;;;9.30;99.90;;;;;;5051930;28;20029;-82
2021/05/02 07:40:51;;;;;;;19.90;14.30;;;9.20;99.90;;;;;;5052444;28;20030;-82
2021/05/02 07:43:17;;;;;;;21.58;14.73;;;9.00;99.90;;;;;;5052235;28;20051;-83
2021/05/02 07:45:43;;;;;;;15.70;12.57;;;9.00;99.90;;;;;;5052152;28;20087;-82
2021/05/02 07:48:10;;;;;;;19.05;13.63;;;9.00;99.90;;;;;;5053406;28;20039;-82
2021/05/02 07:50:37;;;;;;;21.77;12.50;;;9.20;99.90;;;;;;5053493;28;20032;-82
2021/05/02 07:53:05;;;;;;;23.63;15.63;;;9.50;99.90;;;;;;5052026;28;20365;-82
2021/05/02 07:55:32;;;;;;;19.10;13.65;;;9.70;99.90;;;;;;5051976;28;20021;-81
2021/05/02 07:57:58;;;;;;;19.13;13.23;;;9.70;99.90;;;;;;5052041;28;20039;-82
2021/05/02 08:00:24;;;;;;;19.30;13.30;;;9.90;99.90;;;;;;5051951;28;20025;-83
2021/05/02 08:02:49;;;;;;;17.38;13.43;;;10.00;99.90;;;;;;5051927;28;20021;-82
2021/05/02 08:05:15;;;;;;;18.05;12.65;;;10.00;99.90;;;;;;5053187;28;20033;-83
2021/05/02 08:07:42;;;;;;;20.35;13.43;;;10.10;99.90;;;;;;5051859;28;20393;-83
2021/05/02 08:10:08;;;;;;;16.88;12.48;;;10.20;99.90;;;;;;5051863;28;20411;-83
2021/05/02 08:12:34;;;;;;;18.92;12.38;;;10.20;99.90;;;;;;5053115;28;20546;-83
2021/05/02 08:15:00;;;;;;;15.57;12.43;;;10.10;99.90;;;;;;5051663;28;20025;-83
2021/05/02 08:17:26;;;;;;;18.80;12.55;;;9.90;99.90;;;;;;5053524;28;20544;-82
2021/05/02 08:19:52;;;;;;;15.75;12.57;;;9.90;99.90;;;;;;5051630;28;20108;-82
2021/05/02 08:22:18;;;;;;;18.83;13.32;;;9.90;99.90;;;;;;5051641;28;20044;-82
2021/05/02 08:24:44;;;;;;;16.15;12.90;;;9.90;99.90;;;;;;5051724;28;20048;-82
2021/05/02 08:27:10;;;;;;;17.08;12.77;;;9.90;99.90;;;;;;5051528;28;20029;-82
2021/05/02 08:29:36;;;;;;;18.58;12.63;;;9.90;99.90;;;;;;5051662;28;20106;-82
2021/05/02 08:32:02;;;;;;;15.50;12.32;;;9.90;99.90;;;;;;5051435;28;20053;-82
2021/05/02 08:34:28;;;;;;;17.38;12.75;;;10.00;99.90;;;;;;5053397;28;20033;-83
2021/05/02 08:36:54;;;;;;;15.07;11.93;;;10.20;99.90;;;;;;5056949;28;20021;-82
2021/05/02 08:39:19;;;;;;;16.13;12.45;;;10.10;99.90;;;;;;5055594;28;20021;-83
2021/05/02 08:41:45;;;;;;;17.15;12.20;;;10.20;99.90;;;;;;5055549;28;20074;-82
2021/05/02 08:44:11;;;;;;;18.10;13.02;;;10.20;99.90;;;;;;5055811;28;20032;-83
2021/05/02 08:46:37;;;;;;;14.82;11.82;;;10.50;99.90;;;;;;5055419;28;20037;-83
2021/05/02 08:49:05;;;;;;;17.98;11.88;;;10.60;99.90;;;;;;5057024;28;20017;-82
2021/05/02 08:51:32;;;;;;;15.98;11.10;;;10.50;99.90;;;;;;5056993;28;20025;-83
2021/05/02 08:53:58;;;;;;;18.50;13.02;;;10.50;99.90;;;;;;5055245;28;20056;-82
2021/05/02 08:56:24;;;;;;;18.80;12.35;;;10.40;99.90;;;;;;5055225;28;20033;-83
2021/05/02 08:58:49;;;;;;;14.55;11.82;;;10.50;99.90;;;;;;5055230;28;20028;-83
2021/05/02 09:01:26;;;;;;;17.02;12.02;;;10.90;99.90;;;;;;5056430;28;20021;-82
2021/05/02 09:03:52;;;;;;;20.83;11.95;;;11.40;99.90;;;;;;5038606;28;20033;-83
2021/05/02 09:06:27;;;;;;;15.95;11.43;;;11.60;99.90;;;;;;5038511;28;20128;-84
2021/05/02 09:09:02;;;;;;;15.07;11.32;;;11.90;99.90;;;;;;5055019;28;20025;-82
2021/05/02 09:11:43;;;;;;;16.17;12.38;;;11.80;99.90;;;;;;5055012;28;20059;-82
2021/05/02 09:14:19;;;;;;;18.38;13.43;;;11.40;99.90;;;;;;5054911;28;20082;-82
2021/05/02 09:16:52;;;;;;;14.98;12.85;;;10.90;99.90;;;;;;5056234;28;20017;-84
2021/05/02 09:19:23;;;;;;;15.88;12.75;;;10.60;99.90;;;;;;5054963;28;20043;-82
2021/05/02 09:21:49;;;;;;;18.85;13.55;;;10.60;99.90;;;;;;5054853;28;20120;-82
2021/05/02 09:24:25;;;;;;;19.42;13.13;;;10.50;99.90;;;;;;5056052;28;20032;-83
2021/05/02 09:27:11;;;;;;;24.77;16.60;;;10.60;99.90;;;;;;5054755;28;20549;-83
2021/05/02 09:29:39;;;;;;;17.35;13.05;;;10.70;99.90;;;;;;5054736;28;20024;-82
2021/05/02 09:32:06;;;;;;;16.75;13.23;;;10.90;99.90;;;;;;5044072;28;20060;-81
2021/05/02 09:34:32;;;;;;;17.85;12.70;;;11.20;99.90;;;;;;5018118;28;20397;-82
2021/05/02 09:37:03;;;;;;;18.00;13.48;;;10.90;99.90;;;;;;5035837;28;20037;-83
2021/05/02 09:39:40;;;;;;;18.95;13.43;;;11.30;99.90;;;;;;5035807;28;20036;-82
2021/05/02 09:42:17;;;;;;;17.92;13.35;;;11.50;99.90;;;;;;5018617;28;20026;-84
2021/05/02 09:44:54;;;;;;;17.75;13.80;;;11.60;99.90;;;;;;5035466;28;20032;-82
2021/05/02 09:47:31;;;;;;;15.23;12.63;;;11.40;99.90;;;;;;5017347;28;20033;-82
2021/05/02 09:50:09;;;;;;;22.30;13.60;;;11.10;99.90;;;;;;5018015;28;20547;-82
2021/05/02 09:52:48;;;;;;;20.27;13.80;;;11.10;99.90;;;;;;5017905;28;20032;-83
2021/05/02 09:55:19;;;;;;;19.27;14.68;;;10.80;99.90;;;;;;5017757;28;20030;-82
2021/05/02 09:57:56;;;;;;;18.38;12.88;;;10.70;99.90;;;;;;5035990;28;20401;-80
2021/05/02 10:00:29;;;;;;;18.80;14.75;;;10.70;99.90;;;;;;5017867;28;20068;-81
2021/05/02 10:02:55;;;;;;;17.23;14.57;;;10.50;99.90;;;;;;5035425;28;20397;-81
2021/05/02 10:05:21;;;;;;;22.15;13.23;;;10.50;99.90;;;;;;5017695;28;20083;-81
2021/05/02 10:07:48;;;;;;;17.30;12.98;;;10.70;99.90;;;;;;5035332;28;20026;-81
2021/05/02 10:10:14;;;;;;;20.98;14.40;;;10.90;99.90;;;;;;5035295;28;20025;-81
2021/05/02 10:12:41;;;;;;;18.08;13.52;;;11.20;99.90;;;;;;5017421;28;20049;-81
2021/05/02 10:15:08;;;;;;;15.77;13.52;;;11.40;99.90;;;;;;5035611;28;20022;-81
2021/05/02 10:17:34;;;;;;;17.05;12.40;;;11.40;99.90;;;;;;5035673;28;20048;-80
2021/05/02 10:20:00;;;;;;;15.98;13.05;;;11.40;99.90;;;;;;5035409;28;20456;-81
2021/05/02 10:22:26;;;;;;;17.95;13.68;;;11.40;99.90;;;;;;5017281;28;20127;-83
2021/05/02 10:24:52;;;;;;;16.13;12.57;;;11.60;99.90;;;;;;5017275;28;20032;-82
2021/05/02 10:27:18;;;;;;;23.92;13.60;;;11.80;99.90;;;;;;5035279;28;20033;-81
2021/05/02 10:29:49;;;;;;;17.88;12.90;;;12.00;99.90;;;;;;5017694;28;20104;-81
2021/05/02 10:32:18;;;;;;;16.08;13.38;;;12.80;99.90;;;;;;5039499;28;20083;-81
2021/05/02 10:34:49;;;;;;;20.52;12.20;;;13.10;99.90;;;;;;5054766;28;20419;-81
2021/05/02 10:37:25;;;;;;;14.50;11.60;;;12.60;99.90;;;;;;5053599;28;20611;-80
2021/05/02 10:40:10;;;;;;;18.25;13.07;;;13.00;99.90;;;;;;5054609;28;20190;-81
2021/05/02 10:42:57;;;;;;;12.93;10.65;;;13.80;99.90;;;;;;5055346;28;20448;-81
2021/05/02 10:45:36;;;;;;;14.93;10.07;;;14.10;99.90;;;;;;5055547;28;20057;-82
2021/05/02 10:48:06;;;;;;;16.17;11.85;;;14.00;99.90;;;;;;5053934;28;20070;-81
2021/05/02 10:50:36;;;;;;;12.98;10.38;;;14.30;99.90;;;;;;5053406;28;20053;-81
2021/05/02 10:53:23;;;;;;;12.85;9.10;;;14.60;99.90;;;;;;5053285;28;20025;-81
2021/05/02 10:55:53;;;;;;;13.40;10.63;;;15.30;99.20;;;;;;5055546;28;20404;-82
2021/05/02 10:58:28;;;;;;;12.35;10.07;;;14.40;99.90;;;;;;5055552;28;20049;-83
2021/05/02 11:00:59;;;;;;;14.13;11.55;;;14.30;99.90;;;;;;5058845;28;20017;-82
2021/05/02 11:03:39;;;;;;;12.02;10.65;;;13.60;99.90;;;;;;5059811;28;20044;-82
2021/05/02 11:06:13;;;;;;;13.00;10.90;;;13.40;99.90;;;;;;5054575;28;20074;-82
2021/05/02 11:08:49;;;;;;;12.30;10.47;;;13.10;99.90;;;;;;5055056;28;20094;-83
2021/05/02 11:11:33;;;;;;;12.90;10.85;;;13.40;99.90;;;;;;5054224;28;20264;-83
2021/05/02 11:14:08;;;;;;;15.75;10.60;;;13.40;99.90;;;;;;5053990;28;20024;-82
2021/05/02 11:16:39;;;;;;;17.30;10.43;;;13.30;99.90;;;;;;5054362;28;20075;-82
2021/05/02 11:19:10;;;;;;;14.52;12.00;;;12.90;99.90;;;;;;5053219;28;20024;-82
2021/05/02 11:24:39;;;;;;;13.27;11.43;;;11.70;99.90;;;;;;5055370;28;20025;-81
2021/05/02 11:29:51;;;;;;;;;;;10.30;99.90;;;;;;5054309;28;20029;-83
2021/05/02 11:32:29;;;;;;;14.48;12.45;;;10.00;99.90;;;;;;5052154;28;20003;-83
2021/05/02 11:35:07;;;;;;;14.88;12.23;;;10.10;99.90;;;;;;5053836;28;20477;-82
2021/05/02 11:37:53;;;;;;;17.90;12.73;;;10.30;99.90;;;;;;5052300;28;20031;-82
2021/05/02 11:40:28;;;;;;;20.05;14.73;;;10.50;99.90;;;;;;5052384;28;20075;-83
2021/05/02 11:42:57;;;;;;;;;;;10.90;99.90;;;;;;5053910;28;20025;-83
2021/05/02 11:45:33;;;;;;;20.30;14.18;;;11.20;99.90;;;;;;5052198;28;19909;-82
2021/05/02 11:48:04;;;;;;;16.63;12.57;;;11.40;99.90;;;;;;5052256;28;20024;-83
2021/05/02 11:50:40;;;;;;;10.30;8.30;;;11.40;99.90;;;;;;5052687;28;20068;-81
2021/05/02 11:53:06;;;;;;;13.50;9.45;;;11.00;99.90;;;;;;5052397;28;20033;-81
2021/05/02 11:55:38;;;;;;;11.82;10.40;;;10.40;99.90;;;;;;5053407;28;20074;-82
2021/05/02 11:58:14;;;;;;;14.45;11.30;;;10.20;99.90;;;;;;5052042;28;20048;-81
2021/05/02 12:00:42;;;;;;;15.23;11.57;;;9.90;99.90;;;;;;5052052;28;20028;-81
2021/05/02 12:03:10;;;;;;;13.75;10.60;;;9.90;99.90;;;;;;5051977;28;20389;-81
2021/05/02 12:05:50;;;;;;;11.98;9.63;;;10.10;99.90;;;;;;5052036;28;20362;-81
2021/05/02 12:08:17;;;;;;;12.10;9.73;;;10.10;99.90;;;;;;5051322;28;20032;-83
2021/05/02 12:10:44;;;;;;;13.82;11.27;;;11.00;99.90;;;;;;5051888;28;20059;-83
2021/05/02 12:13:48;;;;;;;15.07;11.23;;;11.40;99.90;;;;;;5053093;28;20022;-81
2021/05/02 12:16:28;;;;;;;13.68;9.85;;;11.40;99.90;;;;;;5051853;28;20017;-82
2021/05/02 12:19:05;;;;;;;11.25;9.27;;;11.30;99.90;;;;;;5051939;28;20075;-82
2021/05/02 12:21:46;;;;;;;12.38;10.40;;;11.70;99.90;;;;;;5053118;28;20039;-83
2021/05/02 12:24:16;;;;;;;10.68;9.45;;;12.00;99.90;;;;;;5053125;28;20075;-82
2021/05/02 12:26:49;;;;;;;13.40;9.10;;;12.50;99.90;;;;;;5051772;28;20032;-83
2021/05/02 12:29:26;;;;;;;11.98;8.80;;;12.60;99.90;;;;;;5051827;28;20021;-84
2021/05/02 12:32:02;;;;;;;12.50;10.18;;;13.10;99.90;;;;;;5051564;28;20095;-84
2021/05/02 12:34:34;;;;;;;9.93;8.82;;;13.30;99.90;;;;;;5051692;28;20404;-83
2021/05/02 12:37:14;;;;;;;9.90;7.90;;;13.70;99.90;;;;;;5053306;28;20094;-84
2021/05/02 12:39:45;;;;;;;8.02;7.22;;;14.20;99.90;;;;;;5051614;28;20021;-82
2021/05/02 12:42:11;;;;;;;8.07;7.15;;;14.80;99.90;;;;;;5052940;28;20444;-82
2021/05/02 12:44:41;;;;;;;9.02;8.05;;;14.60;99.90;;;;;;5051625;28;20373;-82
2021/05/02 12:47:17;;;;;;;10.73;8.02;;;14.60;99.90;;;;;;5051668;28;20116;-82
2021/05/02 12:49:57;;;;;;;10.23;7.22;;;15.30;99.90;;;;;;5052854;28;20032;-83
2021/05/02 12:52:35;;;;;;;8.65;7.05;;;16.10;99.90;;;;;;5051761;28;20396;-82